createdAt,value
2023-03-12T00:01:20.344Z,7.38
2023-03-12T00:03:49.419Z,13.55
2023-03-12T00:06:19.416Z,7.88
2023-03-12T00:08:48.672Z,8.55
2023-03-12T00:11:19.164Z,16.73
2023-03-12T00:13:51.566Z,8.45
2023-03-12T00:16:20.882Z,14.82
2023-03-12T00:18:53.095Z,7.18
2023-03-12T00:21:22.496Z,15.18
2023-03-12T00:23:52.720Z,12.20
2023-03-12T00:26:22.021Z,9.23
2023-03-12T00:28:50.735Z,15.40
2023-03-12T00:31:26.108Z,26.65
2023-03-12T00:33:55.582Z,10.90
2023-03-12T00:36:29.264Z,8.88
2023-03-12T00:38:59.102Z,13.65
2023-03-12T00:41:28.781Z,7.95
2023-03-12T00:43:57.320Z,10.30
2023-03-12T00:46:26.183Z,10.75
2023-03-12T00:48:54.451Z,15.73
2023-03-12T00:51:23.292Z,16.17
2023-03-12T00:53:51.304Z,9.40
2023-03-12T00:56:19.785Z,16.40
2023-03-12T00:58:47.797Z,11.52
2023-03-12T01:01:16.353Z,13.30
2023-03-12T01:03:46.082Z,15.15
2023-03-12T01:06:14.647Z,11.85
2023-03-12T01:08:42.687Z,10.50
2023-03-12T01:11:18.250Z,8.45
2023-03-12T01:13:47.155Z,7.35
2023-03-12T01:16:16.055Z,7.88
2023-03-12T01:18:44.257Z,6.95
2023-03-12T01:21:12.863Z,8.93
2023-03-12T01:23:41.892Z,14.20
2023-03-12T01:26:10.461Z,13.73
2023-03-12T01:28:39.805Z,10.80
2023-03-12T01:31:14.036Z,11.70
2023-03-12T01:33:42.838Z,4.65
2023-03-12T01:36:30.837Z,5.47
2023-03-12T01:39:00.277Z,6.15
2023-03-12T01:41:32.586Z,5.20
2023-03-12T01:44:03.737Z,5.55
2023-03-12T01:46:38.714Z,4.53
2023-03-12T01:49:31.927Z,7.78
2023-03-12T01:52:07.600Z,3.90
2023-03-12T01:54:44.719Z,6.65
2023-03-12T01:57:17.227Z,7.70
2023-03-12T01:59:55.595Z,11.65
2023-03-12T02:02:28.813Z,6.30
2023-03-12T02:05:14.131Z,5.65
2023-03-12T02:07:42.535Z,5.00
2023-03-12T02:10:11.477Z,5.03
2023-03-12T02:12:40.039Z,7.18
2023-03-12T02:15:08.803Z,3.97
2023-03-12T02:17:38.037Z,4.20
2023-03-12T02:20:16.366Z,4.43
2023-03-12T02:22:51.788Z,4.00
2023-03-12T02:25:31.434Z,3.70
2023-03-12T02:28:02.857Z,3.75
2023-03-12T02:30:33.125Z,3.25
2023-03-12T02:33:07.456Z,3.33
2023-03-12T02:35:36.807Z,3.10
2023-03-12T02:38:39.378Z,3.53
2023-03-12T02:41:22.950Z,3.53
2023-03-12T02:44:12.042Z,4.10
2023-03-12T02:46:45.322Z,3.83
2023-03-12T02:49:15.883Z,3.80
2023-03-12T02:51:46.632Z,3.65
2023-03-12T02:54:18.422Z,3.33
2023-03-12T02:56:47.038Z,3.25
2023-03-12T02:59:16.827Z,4.07
2023-03-12T03:01:47.545Z,3.30
2023-03-12T03:04:16.068Z,3.70
2023-03-12T03:06:44.775Z,3.30
2023-03-12T03:09:13.742Z,3.08
2023-03-12T03:11:42.148Z,3.10
2023-03-12T03:14:11.585Z,2.72
2023-03-12T03:16:39.933Z,2.83
2023-03-12T03:19:09.126Z,2.85
2023-03-12T03:21:37.366Z,2.92
2023-03-12T03:24:06.094Z,3.10
2023-03-12T03:26:34.342Z,2.50
2023-03-12T03:29:02.898Z,2.80
2023-03-12T03:31:31.154Z,3.03
2023-03-12T03:34:00.152Z,2.55
2023-03-12T03:36:28.642Z,2.80
2023-03-12T03:39:13.907Z,2.63
2023-03-12T03:41:43.992Z,2.75
2023-03-12T03:44:13.166Z,2.45
2023-03-12T03:46:41.878Z,2.80
2023-03-12T03:49:12.473Z,2.35
2023-03-12T03:51:42.899Z,2.63
2023-03-12T03:54:15.686Z,2.28
2023-03-12T03:56:45.785Z,2.30
2023-03-12T03:59:15.173Z,2.95
2023-03-12T04:01:44.206Z,3.10
2023-03-12T04:04:12.563Z,2.60
2023-03-12T04:06:40.946Z,2.22
2023-03-12T04:09:09.502Z,2.50
2023-03-12T04:11:39.722Z,2.50
2023-03-12T04:14:10.624Z,2.58
2023-03-12T04:16:41.558Z,2.30
2023-03-12T04:19:10.066Z,2.85
2023-03-12T04:21:39.712Z,3.53
2023-03-12T04:24:13.117Z,3.13
2023-03-12T04:26:42.463Z,2.92
2023-03-12T04:29:10.946Z,2.92
2023-03-12T04:31:39.348Z,2.72
2023-03-12T04:34:07.810Z,2.53
2023-03-12T04:36:35.924Z,2.95
2023-03-12T04:39:07.642Z,2.58
2023-03-12T04:41:36.733Z,2.80
2023-03-12T04:44:12.757Z,2.80
2023-03-12T04:46:43.224Z,2.30
2023-03-12T04:49:15.093Z,2.70
2023-03-12T04:51:44.218Z,2.45
2023-03-12T04:54:12.931Z,2.40
2023-03-12T04:56:45.601Z,2.22
2023-03-12T04:59:14.604Z,2.38
2023-03-12T05:01:44.367Z,2.08
2023-03-12T05:04:23.367Z,2.70
2023-03-12T05:06:52.203Z,2.60
2023-03-12T05:09:20.875Z,2.20
2023-03-12T05:11:49.430Z,2.30
2023-03-12T05:14:20.857Z,2.42
2023-03-12T05:16:50.518Z,2.05
2023-03-12T05:19:19.329Z,2.33
2023-03-12T05:21:47.399Z,3.20
2023-03-12T05:24:16.553Z,4.10
2023-03-12T05:26:45.106Z,3.30
2023-03-12T05:29:19.555Z,2.10
2023-03-12T05:31:47.765Z,2.30
2023-03-12T05:34:16.529Z,2.20
2023-03-12T05:36:46.166Z,1.73
2023-03-12T05:39:19.492Z,2.30
2023-03-12T05:41:48.505Z,2.00
2023-03-12T05:44:20.245Z,2.58
2023-03-12T05:46:53.800Z,3.03
2023-03-12T05:49:26.057Z,2.42
2023-03-12T05:51:55.617Z,1.88
2023-03-12T05:54:25.507Z,2.10
2023-03-12T05:56:56.108Z,1.70
2023-03-12T05:59:26.366Z,1.20
2023-03-12T06:05:04.365Z,1.10
2023-03-12T06:07:37.511Z,1.50
2023-03-12T06:10:26.043Z,1.35
2023-03-12T06:12:54.349Z,1.70
2023-03-12T06:15:27.041Z,2.25
2023-03-12T06:17:55.936Z,1.60
2023-03-12T06:20:24.535Z,1.52
2023-03-12T06:22:53.153Z,1.23
2023-03-12T06:25:25.056Z,1.40
2023-03-12T06:27:56.254Z,2.13
2023-03-12T06:30:38.368Z,4.40
2023-03-12T06:33:09.013Z,2.65
2023-03-12T06:35:37.369Z,2.83
2023-03-12T06:38:05.508Z,2.97
2023-03-12T06:40:41.685Z,2.35
2023-03-12T06:43:16.035Z,2.90
2023-03-12T06:45:44.916Z,5.35
2023-03-12T06:48:24.573Z,5.65
2023-03-12T06:50:53.852Z,9.02
2023-03-12T06:53:29.450Z,12.25
2023-03-12T06:56:20.611Z,2.13
2023-03-12T06:59:12.057Z,1.33
2023-03-12T07:01:40.375Z,1.50
2023-03-12T07:04:12.056Z,1.65
2023-03-12T07:07:28.009Z,6.60
2023-03-12T07:10:34.569Z,3.63
2023-03-12T07:13:03.133Z,9.65
2023-03-12T07:15:31.923Z,12.52
2023-03-12T07:18:01.380Z,10.23
2023-03-12T07:20:30.243Z,29.17
2023-03-12T07:22:59.081Z,17.88
2023-03-12T07:25:28.406Z,29.63
2023-03-12T07:27:56.348Z,12.98
2023-03-12T07:30:27.269Z,15.88
2023-03-12T07:32:55.989Z,8.57
2023-03-12T07:35:24.360Z,6.55
2023-03-12T07:37:52.301Z,7.35
2023-03-12T07:40:21.092Z,6.22
2023-03-12T07:42:51.018Z,6.30
2023-03-12T07:45:19.893Z,19.17
2023-03-12T07:47:48.255Z,8.85
2023-03-12T07:50:18.214Z,15.40
2023-03-12T07:52:47.051Z,9.68
2023-03-12T07:55:16.512Z,17.10
2023-03-12T07:57:45.863Z,7.68
2023-03-12T08:00:19.535Z,18.63
2023-03-12T08:02:52.353Z,10.85
2023-03-12T08:05:28.732Z,12.02
2023-03-12T08:07:56.744Z,7.70
2023-03-12T08:10:25.099Z,4.18
2023-03-12T08:12:53.134Z,15.63
2023-03-12T08:15:21.463Z,18.65
2023-03-12T08:17:49.472Z,9.60
2023-03-12T08:20:17.984Z,23.00
2023-03-12T08:22:46.464Z,14.95
2023-03-12T08:25:17.735Z,14.55
2023-03-12T08:27:45.922Z,8.00
2023-03-12T08:30:14.427Z,13.80
2023-03-12T08:32:43.409Z,12.68
2023-03-12T08:35:12.312Z,21.75
2023-03-12T08:37:41.525Z,10.05
2023-03-12T08:40:13.609Z,6.60
2023-03-12T08:42:45.782Z,3.72
2023-03-12T08:45:15.822Z,5.05
2023-03-12T08:47:44.698Z,14.77
2023-03-12T08:50:16.757Z,58.53
2023-03-12T08:52:45.088Z,8.43
2023-03-12T08:55:13.521Z,15.77
2023-03-12T08:57:41.811Z,5.40
2023-03-12T09:00:11.578Z,6.80
2023-03-12T09:02:46.661Z,7.88
2023-03-12T09:05:15.342Z,17.33
2023-03-12T09:07:43.362Z,5.85
2023-03-12T09:10:12.543Z,3.70
2023-03-12T09:12:41.341Z,3.85
2023-03-12T09:15:10.047Z,3.78
2023-03-12T09:17:38.477Z,5.18
2023-03-12T09:20:09.479Z,5.47
2023-03-12T09:22:37.866Z,3.80
2023-03-12T09:25:08.083Z,6.93
2023-03-12T09:27:43.383Z,5.55
2023-03-12T09:30:20.688Z,3.00
2023-03-12T09:32:49.048Z,5.38
2023-03-12T09:35:17.612Z,8.30
2023-03-12T09:37:49.615Z,3.83
2023-03-12T09:40:22.240Z,4.05
2023-03-12T09:42:56.191Z,7.32
2023-03-12T09:45:33.228Z,4.05
2023-03-12T09:48:04.441Z,3.58
2023-03-12T09:50:40.686Z,4.97
2023-03-12T09:53:23.960Z,5.07
2023-03-12T09:55:55.774Z,3.30
2023-03-12T09:58:33.988Z,3.30
2023-03-12T10:01:36.726Z,3.05
2023-03-12T10:04:10.664Z,2.28
2023-03-12T10:07:02.899Z,1.50
2023-03-12T10:09:49.570Z,2.28
2023-03-12T10:12:20.801Z,1.58
2023-03-12T10:15:06.685Z,1.63
2023-03-12T10:17:52.041Z,2.30
2023-03-12T10:21:16.407Z,1.95
2023-03-12T10:23:50.094Z,4.30
2023-03-12T10:26:26.148Z,6.50
2023-03-12T10:29:33.630Z,10.85
2023-03-12T10:34:51.671Z,12.25
2023-03-12T10:37:43.079Z,15.27
2023-03-12T10:40:19.514Z,6.65
2023-03-12T10:42:48.549Z,4.03
2023-03-12T10:45:30.927Z,9.43
2023-03-12T10:48:04.655Z,3.28
2023-03-12T10:50:37.866Z,2.60
2023-03-12T10:53:22.973Z,4.65
2023-03-12T10:56:09.786Z,3.37
2023-03-12T10:58:49.455Z,2.33
2023-03-12T11:01:31.793Z,1.70
2023-03-12T11:04:22.940Z,1.92
2023-03-12T11:07:12.850Z,2.05
2023-03-12T11:09:40.969Z,1.88
2023-03-12T11:12:30.932Z,2.40
2023-03-12T11:14:59.181Z,1.95
2023-03-12T11:17:29.338Z,2.05
2023-03-12T11:19:57.483Z,3.60
2023-03-12T11:22:32.089Z,1.95
2023-03-12T11:25:06.201Z,1.80
2023-03-12T11:27:46.034Z,2.05
2023-03-12T11:30:22.108Z,2.05
2023-03-12T11:32:51.590Z,2.10
2023-03-12T11:35:39.413Z,12.73
2023-03-12T11:38:18.811Z,1.85
2023-03-12T11:41:14.396Z,9.45
2023-03-12T11:44:28.955Z,4.93
2023-03-12T11:47:27.985Z,4.32
2023-03-12T11:50:21.227Z,2.53
2023-03-12T11:53:23.195Z,2.70
2023-03-12T11:56:03.632Z,2.00
2023-03-12T11:58:55.829Z,1.85
2023-03-12T12:01:52.295Z,2.00
2023-03-12T12:04:44.787Z,2.50
2023-03-12T12:07:48.349Z,1.75
2023-03-12T12:10:28.153Z,2.30
2023-03-12T12:13:16.038Z,3.60
2023-03-12T12:15:49.944Z,2.85
2023-03-12T12:18:30.255Z,3.40
2023-03-12T12:21:33.287Z,1.70
2023-03-12T12:24:38.946Z,2.42
2023-03-12T12:27:22.234Z,2.03
2023-03-12T12:30:12.577Z,2.05
2023-03-12T12:33:12.890Z,2.35
2023-03-12T12:35:45.551Z,2.50
2023-03-12T12:38:30.543Z,2.25
2023-03-12T12:41:17.567Z,2.92
2023-03-12T12:43:50.972Z,2.35
2023-03-12T12:46:34.199Z,3.00
2023-03-12T12:49:12.699Z,2.15
2023-03-12T12:51:48.104Z,1.50
2023-03-12T12:54:25.632Z,2.30
2023-03-12T12:56:58.017Z,2.45
2023-03-12T12:59:50.870Z,1.83
2023-03-12T13:02:28.879Z,2.13
2023-03-12T13:04:59.111Z,1.98
2023-03-12T13:07:28.157Z,1.63
2023-03-12T13:09:58.292Z,32.47
2023-03-12T13:12:31.020Z,12.45
2023-03-12T13:15:01.068Z,4.22
2023-03-12T13:17:36.574Z,2.28
2023-03-12T13:20:17.467Z,7.03
2023-03-12T13:23:04.008Z,11.73
2023-03-12T13:28:32.961Z,3.15
2023-03-12T13:31:21.360Z,3.40
2023-03-12T13:34:18.020Z,4.13
2023-03-12T13:36:50.422Z,3.53
2023-03-12T13:39:28.309Z,1.85
2023-03-12T13:42:00.097Z,2.33
2023-03-12T13:44:37.473Z,1.42
2023-03-12T13:47:24.421Z,1.80
2023-03-12T13:50:06.058Z,3.40
2023-03-12T13:52:42.285Z,3.70
2023-03-12T13:55:13.929Z,1.63
2023-03-12T13:57:44.710Z,1.95
2023-03-12T14:00:45.713Z,1.80
2023-03-12T14:03:21.684Z,1.80
2023-03-12T14:06:14.304Z,2.17
2023-03-12T14:09:15.454Z,2.20
2023-03-12T14:12:07.162Z,2.22
2023-03-12T14:15:15.772Z,2.00
2023-03-12T14:17:46.872Z,2.10
2023-03-12T14:20:23.222Z,1.85
2023-03-12T14:22:59.062Z,2.03
2023-03-12T14:25:44.932Z,1.50
2023-03-12T14:28:20.929Z,1.50
2023-03-12T14:30:52.894Z,1.48
2023-03-12T14:33:22.400Z,15.45
2023-03-12T14:36:12.388Z,2.00
2023-03-12T14:38:43.821Z,2.33
2023-03-12T14:41:44.812Z,2.08
2023-03-12T14:44:27.807Z,1.70
2023-03-12T14:47:11.980Z,2.65
2023-03-12T14:49:47.355Z,2.30
2023-03-12T14:52:24.560Z,1.70
2023-03-12T14:55:08.956Z,2.70
2023-03-12T14:57:37.404Z,2.78
2023-03-12T15:00:16.245Z,2.60
2023-03-12T15:02:46.452Z,3.25
2023-03-12T15:05:19.507Z,2.10
2023-03-12T15:07:49.434Z,2.42
2023-03-12T15:10:25.205Z,2.50
2023-03-12T15:12:57.196Z,2.78
2023-03-12T15:15:39.790Z,3.67
2023-03-12T15:18:13.899Z,2.78
2023-03-12T15:20:43.376Z,2.00
2023-03-12T15:23:14.132Z,2.55
2023-03-12T15:25:44.051Z,4.30
2023-03-12T15:28:15.158Z,3.63
2023-03-12T15:30:45.404Z,3.30
2023-03-12T15:33:18.986Z,3.63
2023-03-12T15:36:05.072Z,3.33
2023-03-12T15:38:35.241Z,3.63
2023-03-12T15:41:08.947Z,4.43
2023-03-12T15:43:37.803Z,2.90
2023-03-12T15:46:07.664Z,5.05
2023-03-12T15:48:41.441Z,4.10
2023-03-12T15:51:29.296Z,4.70
2023-03-12T15:54:30.575Z,7.60
2023-03-12T15:57:24.865Z,9.52
2023-03-12T16:00:13.431Z,3.85
2023-03-12T16:03:04.023Z,5.03
2023-03-12T16:05:35.792Z,5.00
2023-03-12T16:08:14.549Z,5.43
2023-03-12T16:10:43.820Z,4.72
2023-03-12T16:13:16.200Z,5.57
2023-03-12T16:15:46.197Z,10.05
2023-03-12T16:18:20.896Z,8.55
2023-03-12T16:20:53.150Z,14.90
2023-03-12T16:23:24.656Z,16.83
2023-03-12T16:25:56.539Z,21.52
2023-03-12T16:28:25.886Z,30.52
2023-03-12T16:30:54.528Z,24.17
2023-03-12T16:33:24.977Z,10.85
2023-03-12T16:35:53.145Z,11.07
2023-03-12T16:38:21.760Z,7.55
2023-03-12T16:40:52.172Z,4.90
2023-03-12T16:43:25.265Z,9.27
2023-03-12T16:45:54.622Z,18.95
2023-03-12T16:48:27.135Z,47.70
2023-03-12T16:50:57.693Z,41.72
2023-03-12T16:53:26.998Z,34.13
2023-03-12T16:55:57.801Z,35.47
2023-03-12T16:58:27.135Z,21.50
2023-03-12T17:00:55.929Z,18.92
2023-03-12T17:03:39.402Z,20.27
2023-03-12T17:06:08.408Z,22.58
2023-03-12T17:08:37.214Z,19.75
2023-03-12T17:11:30.437Z,22.17
2023-03-12T17:14:05.830Z,23.77
2023-03-12T17:16:33.879Z,28.23
2023-03-12T17:19:03.445Z,26.60
2023-03-12T17:21:31.629Z,27.85
2023-03-12T17:24:00.180Z,43.58
2023-03-12T17:26:28.413Z,71.68
2023-03-12T17:28:56.783Z,69.70
2023-03-12T17:31:26.440Z,86.45
2023-03-12T17:33:55.205Z,82.72
2023-03-12T17:36:23.286Z,76.68
2023-03-12T17:38:51.778Z,54.15
2023-03-12T17:41:26.471Z,44.80
2023-03-12T17:43:58.727Z,39.13
2023-03-12T17:46:27.277Z,46.00
2023-03-12T17:48:56.416Z,42.90
2023-03-12T17:51:25.433Z,42.80
2023-03-12T17:53:54.239Z,44.03
2023-03-12T17:56:22.619Z,47.85
2023-03-12T17:58:51.087Z,43.85
2023-03-12T18:01:19.477Z,47.50
2023-03-12T18:03:48.415Z,40.75
2023-03-12T18:06:19.635Z,38.15
2023-03-12T18:08:48.317Z,46.30
2023-03-12T18:11:16.366Z,48.08
2023-03-12T18:13:48.256Z,42.53
2023-03-12T18:16:17.251Z,42.90
2023-03-12T18:18:45.987Z,43.40
2023-03-12T18:21:14.149Z,40.53
2023-03-12T18:23:43.894Z,53.60
2023-03-12T18:26:12.333Z,44.75
2023-03-12T18:28:40.929Z,57.22
2023-03-12T18:31:09.653Z,141.65
2023-03-12T18:33:44.890Z,44.70
2023-03-12T18:36:13.216Z,34.85
2023-03-12T18:38:41.739Z,38.63
2023-03-12T18:41:12.509Z,46.30
2023-03-12T18:43:41.910Z,69.13
2023-03-12T18:46:09.934Z,131.95
2023-03-12T18:48:38.734Z,172.10
2023-03-12T18:51:07.440Z,124.85
2023-03-12T18:53:37.831Z,164.57
2023-03-12T18:56:06.692Z,98.38
2023-03-12T18:58:36.240Z,179.07
2023-03-12T19:01:04.700Z,144.07
2023-03-12T19:03:36.652Z,43.30
2023-03-12T19:06:10.709Z,26.58
2023-03-12T19:08:39.435Z,24.42
2023-03-12T19:11:10.185Z,23.05
2023-03-12T19:13:40.375Z,23.20
2023-03-12T19:16:11.232Z,18.23
2023-03-12T19:18:39.893Z,17.08
2023-03-12T19:21:08.882Z,19.58
2023-03-12T19:23:53.182Z,29.85
2023-03-12T19:26:21.452Z,21.52
2023-03-12T19:28:49.668Z,25.45
2023-03-12T19:31:18.941Z,26.48
2023-03-12T19:33:47.568Z,22.40
2023-03-12T19:36:16.606Z,54.45
2023-03-12T19:38:44.978Z,37.15
2023-03-12T19:41:13.624Z,27.50
2023-03-12T19:43:42.526Z,24.20
2023-03-12T19:46:11.136Z,49.90
2023-03-12T19:48:56.494Z,23.27
2023-03-12T19:51:25.072Z,24.53
2023-03-12T19:53:54.225Z,22.70
2023-03-12T19:56:23.016Z,70.90
2023-03-12T19:58:52.294Z,33.92
2023-03-12T20:01:21.343Z,31.13
2023-03-12T20:03:52.651Z,20.60
2023-03-12T20:06:21.023Z,51.22
2023-03-12T20:08:49.231Z,71.22
2023-03-12T20:11:17.474Z,79.03
2023-03-12T20:13:46.052Z,155.27
2023-03-12T20:16:14.375Z,140.93
2023-03-12T20:18:42.824Z,84.68
2023-03-12T20:21:11.330Z,233.60
2023-03-12T20:23:39.469Z,71.57
2023-03-12T20:26:07.769Z,104.78
2023-03-12T20:28:35.835Z,62.17
2023-03-12T20:31:12.914Z,30.63
2023-03-12T20:33:41.451Z,27.35
2023-03-12T20:36:14.740Z,43.28
2023-03-12T20:38:44.018Z,47.83
2023-03-12T20:41:16.057Z,20.55
2023-03-12T20:43:45.257Z,31.55
2023-03-12T20:46:14.248Z,23.52
2023-03-12T20:48:42.546Z,24.30
2023-03-12T20:51:11.378Z,37.17
2023-03-12T20:53:39.713Z,30.38
2023-03-12T20:56:08.918Z,27.83
2023-03-12T20:58:37.277Z,22.08
2023-03-12T21:01:06.225Z,22.90
2023-03-12T21:03:34.760Z,14.52
2023-03-12T21:06:03.705Z,44.17
2023-03-12T21:08:33.073Z,124.90
2023-03-12T21:11:02.538Z,46.10
2023-03-12T21:13:31.017Z,30.27
2023-03-12T21:15:59.835Z,41.60
2023-03-12T21:18:29.401Z,46.47
2023-03-12T21:21:03.499Z,40.13
2023-03-12T21:23:32.666Z,40.80
2023-03-12T21:26:07.185Z,46.65
2023-03-12T21:28:36.749Z,346.30
2023-03-12T21:31:10.129Z,117.43
2023-03-12T21:36:25.607Z,132.02
2023-03-12T21:38:54.081Z,64.75
2023-03-12T21:41:22.636Z,38.53
2023-03-12T21:43:51.040Z,27.67
2023-03-12T21:46:20.598Z,28.67
2023-03-12T21:48:49.494Z,28.67
2023-03-12T21:51:18.685Z,79.78
2023-03-12T21:53:52.273Z,43.15
2023-03-12T21:56:21.437Z,62.97
2023-03-12T21:58:49.395Z,45.42
2023-03-12T22:01:20.340Z,38.70
2023-03-12T22:03:48.781Z,44.53
2023-03-12T22:06:17.723Z,29.38
2023-03-12T22:08:49.776Z,52.10
2023-03-12T22:11:18.624Z,31.10
2023-03-12T22:13:46.695Z,27.33
2023-03-12T22:16:15.825Z,30.63
2023-03-12T22:18:45.545Z,287.95
2023-03-12T22:21:20.012Z,83.35
2023-03-12T22:23:52.071Z,52.30
2023-03-12T22:26:22.864Z,58.53
2023-03-12T22:28:56.272Z,41.80
2023-03-12T22:31:27.326Z,21.15
2023-03-12T22:33:56.600Z,25.85
2023-03-12T22:36:25.327Z,30.20
2023-03-12T22:38:55.722Z,17.05
2023-03-12T22:41:28.794Z,13.13
2023-03-12T22:44:05.325Z,10.10
2023-03-12T22:46:34.478Z,15.30
2023-03-12T22:49:04.298Z,12.27
2023-03-12T22:51:33.897Z,12.23
2023-03-12T22:54:03.127Z,19.75
2023-03-12T22:56:31.600Z,20.63
2023-03-12T22:58:59.972Z,28.50
2023-03-12T23:01:28.648Z,14.00
2023-03-12T23:03:56.821Z,14.88
2023-03-12T23:06:27.809Z,23.23
2023-03-12T23:08:56.224Z,19.88
2023-03-12T23:11:26.837Z,12.52
2023-03-12T23:13:56.475Z,12.18
2023-03-12T23:16:26.098Z,19.13
2023-03-12T23:18:56.613Z,16.00
2023-03-12T23:21:25.843Z,9.98
2023-03-12T23:23:54.100Z,11.27
2023-03-12T23:26:28.614Z,16.40
2023-03-12T23:28:58.750Z,11.43
2023-03-12T23:31:29.460Z,21.85
2023-03-12T23:33:58.540Z,21.27
2023-03-12T23:36:27.488Z,19.17
2023-03-12T23:38:55.716Z,24.65
2023-03-12T23:41:28.057Z,14.23
2023-03-12T23:43:57.333Z,22.40
2023-03-12T23:46:28.169Z,21.77
2023-03-12T23:48:57.203Z,10.68
2023-03-12T23:51:27.939Z,12.88
2023-03-12T23:53:58.586Z,12.65
2023-03-12T23:56:32.092Z,12.27
2023-03-12T23:59:00.213Z,13.15
